RYR62FP LIBC-LIME
Flight info
| Callsign | RYR62FP |
|---|---|
| Flight time | 1h 33m |
| Altitude | 40000 |
| Route | CDC DCT TEA DCT ALAXI DCT KUGIX DCT LOMED DCT IPLUB DCT OSBUL |
| Aircraft | B38M/M-SADE3FGILRWY/SB1 |
Departure
| Time | 2026-05-09 09:42 |
|---|---|
| Airport | Crotone Sant'Anna Pythagoras Airport (LIBC) |
Arrival
| Time | 2026-05-09 11:15 |
|---|---|
| Airport | Il Caravaggio International Airport (LIME) |
| Time | Latitude | Longitude | Altitude | Speed | Heading |
|---|---|---|---|---|---|
| 2026-05-09 09:14 | 38.99566 | 17.07780 | 530 ft | 0 kts | 301° |
| 2026-05-09 09:36 | 38.99583 | 17.07797 | 530 ft | 4 kts | 78° |
| 2026-05-09 09:36 | 38.99556 | 17.07838 | 529 ft | 9 kts | 157° |
| 2026-05-09 09:36 | 38.99488 | 17.07858 | 529 ft | 11 kts | 169° |
| 2026-05-09 09:37 | 38.99416 | 17.07903 | 529 ft | 13 kts | 132° |
| 2026-05-09 09:37 | 38.99346 | 17.08007 | 528 ft | 17 kts | 131° |
| 2026-05-09 09:37 | 38.99267 | 17.08121 | 531 ft | 17 kts | 142° |
| 2026-05-09 09:37 | 38.99147 | 17.08169 | 531 ft | 20 kts | 169° |
| 2026-05-09 09:38 | 38.99004 | 17.08205 | 531 ft | 22 kts | 168° |
| 2026-05-09 09:38 | 38.98890 | 17.08203 | 528 ft | 14 kts | 189° |
| 2026-05-09 09:38 | 38.98860 | 17.08239 | 527 ft | 4 kts | 52° |
| 2026-05-09 09:38 | 38.98878 | 17.08239 | 527 ft | 2 kts | 340° |
| 2026-05-09 09:39 | 38.98896 | 17.08233 | 528 ft | 2 kts | 347° |
| 2026-05-09 09:40 | 38.98897 | 17.08233 | 528 ft | 1 kts | 347° |
| 2026-05-09 09:41 | 38.98915 | 17.08228 | 529 ft | 4 kts | 349° |
| 2026-05-09 09:41 | 38.98993 | 17.08209 | 531 ft | 35 kts | 348° |
| 2026-05-09 09:41 | 38.99524 | 17.08076 | 529 ft | 117 kts | 349° |
| 2026-05-09 09:41 | 39.00527 | 17.07816 | 693 ft | 164 kts | 351° |
| 2026-05-09 09:42 | 39.01666 | 17.07547 | 1588 ft | 171 kts | 351° |
| 2026-05-09 09:42 | 39.02865 | 17.07251 | 2538 ft | 177 kts | 349° |
| 2026-05-09 09:42 | 39.04152 | 17.06910 | 3171 ft | 202 kts | 349° |
| 2026-05-09 09:42 | 39.05545 | 17.06567 | 4123 ft | 209 kts | 348° |
| 2026-05-09 09:43 | 39.07031 | 17.06182 | 4858 ft | 227 kts | 348° |
| 2026-05-09 09:43 | 39.08623 | 17.05644 | 5512 ft | 245 kts | 335° |
| 2026-05-09 09:43 | 39.09934 | 17.04380 | 6783 ft | 230 kts | 307° |
| 2026-05-09 09:43 | 39.10597 | 17.02547 | 7866 ft | 229 kts | 281° |
| 2026-05-09 09:44 | 39.10513 | 17.00484 | 8785 ft | 236 kts | 255° |
| 2026-05-09 09:44 | 39.09679 | 16.98647 | 9750 ft | 246 kts | 230° |
| 2026-05-09 09:44 | 39.08390 | 16.97160 | 10612 ft | 250 kts | 228° |
| 2026-05-09 09:44 | 39.07112 | 16.95621 | 11484 ft | 253 kts | 229° |
| 2026-05-09 09:45 | 39.05828 | 16.94064 | 12363 ft | 255 kts | 230° |
| 2026-05-09 09:45 | 39.04530 | 16.92483 | 13262 ft | 258 kts | 230° |
| 2026-05-09 09:45 | 39.03222 | 16.90889 | 14111 ft | 263 kts | 230° |
| 2026-05-09 09:45 | 39.01992 | 16.89085 | 14555 ft | 275 kts | 243° |
| 2026-05-09 09:46 | 39.00933 | 16.86935 | 14961 ft | 295 kts | 243° |
| 2026-05-09 09:46 | 38.99786 | 16.84634 | 15309 ft | 316 kts | 242° |
| 2026-05-09 09:46 | 38.98567 | 16.82211 | 15751 ft | 330 kts | 242° |
| 2026-05-09 09:46 | 38.97318 | 16.79731 | 16342 ft | 337 kts | 242° |
| 2026-05-09 09:47 | 38.96025 | 16.77166 | 17161 ft | 339 kts | 243° |
| 2026-05-09 09:47 | 38.94749 | 16.74640 | 17831 ft | 345 kts | 243° |
| 2026-05-09 09:47 | 38.93436 | 16.72040 | 18532 ft | 348 kts | 243° |
| 2026-05-09 09:47 | 38.92112 | 16.69422 | 19148 ft | 351 kts | 243° |
| 2026-05-09 09:48 | 38.90779 | 16.66789 | 19820 ft | 352 kts | 243° |
| 2026-05-09 09:48 | 38.89439 | 16.64144 | 20461 ft | 354 kts | 243° |
| 2026-05-09 09:48 | 38.88091 | 16.61483 | 21113 ft | 356 kts | 243° |
| 2026-05-09 09:48 | 38.86736 | 16.58813 | 21733 ft | 359 kts | 242° |
| 2026-05-09 09:49 | 38.85370 | 16.56121 | 22366 ft | 361 kts | 242° |
| 2026-05-09 09:49 | 38.83994 | 16.53414 | 22981 ft | 363 kts | 242° |
| 2026-05-09 09:49 | 38.82609 | 16.50690 | 23605 ft | 366 kts | 242° |
| 2026-05-09 09:49 | 38.81211 | 16.47943 | 24146 ft | 368 kts | 242° |
| 2026-05-09 09:50 | 38.79841 | 16.45160 | 24655 ft | 368 kts | 248° |
| 2026-05-09 09:50 | 38.79016 | 16.42102 | 25117 ft | 362 kts | 264° |
| 2026-05-09 09:50 | 38.78993 | 16.38889 | 25565 ft | 363 kts | 279° |
| 2026-05-09 09:50 | 38.79727 | 16.35781 | 25976 ft | 369 kts | 294° |
| 2026-05-09 09:51 | 38.81131 | 16.33015 | 26537 ft | 374 kts | 307° |
| 2026-05-09 09:51 | 38.83045 | 16.30705 | 27037 ft | 382 kts | 316° |
| 2026-05-09 09:51 | 38.85130 | 16.28570 | 27542 ft | 386 kts | 317° |
| 2026-05-09 09:51 | 38.87285 | 16.26485 | 28003 ft | 389 kts | 319° |
| 2026-05-09 09:52 | 38.89480 | 16.24429 | 28475 ft | 392 kts | 319° |
| 2026-05-09 09:52 | 38.91701 | 16.22379 | 28959 ft | 394 kts | 320° |
| 2026-05-09 09:52 | 38.93943 | 16.20329 | 29371 ft | 397 kts | 320° |
| 2026-05-09 09:52 | 38.96208 | 16.18268 | 29798 ft | 400 kts | 320° |
| 2026-05-09 09:53 | 38.98487 | 16.16196 | 30236 ft | 403 kts | 320° |
| 2026-05-09 09:53 | 39.00785 | 16.14107 | 30605 ft | 406 kts | 320° |
| 2026-05-09 09:53 | 39.03095 | 16.12005 | 31020 ft | 407 kts | 320° |
| 2026-05-09 09:53 | 39.05412 | 16.09896 | 31406 ft | 409 kts | 319° |
| 2026-05-09 09:54 | 39.07740 | 16.07776 | 31777 ft | 411 kts | 319° |
| 2026-05-09 09:54 | 39.10083 | 16.05639 | 32150 ft | 414 kts | 319° |
| 2026-05-09 09:54 | 39.12436 | 16.03493 | 32544 ft | 415 kts | 319° |
| 2026-05-09 09:54 | 39.14797 | 16.01336 | 32974 ft | 416 kts | 319° |
| 2026-05-09 09:55 | 39.17148 | 15.99187 | 33535 ft | 413 kts | 318° |
| 2026-05-09 09:55 | 39.19487 | 15.97047 | 34080 ft | 411 kts | 318° |
| 2026-05-09 09:55 | 39.21782 | 15.94948 | 34510 ft | 409 kts | 318° |
| 2026-05-09 09:55 | 39.24100 | 15.92825 | 34942 ft | 408 kts | 318° |
| 2026-05-09 09:56 | 39.26437 | 15.90682 | 35342 ft | 406 kts | 318° |
| 2026-05-09 09:56 | 39.28707 | 15.88598 | 35721 ft | 405 kts | 318° |
| 2026-05-09 09:56 | 39.31000 | 15.86492 | 36110 ft | 404 kts | 319° |
| 2026-05-09 09:56 | 39.32545 | 15.85072 | 36358 ft | 403 kts | 319° |
| 2026-05-09 09:57 | 39.35563 | 15.82296 | 36835 ft | 401 kts | 319° |
| 2026-05-09 09:57 | 39.37834 | 15.80205 | 37185 ft | 400 kts | 319° |
| 2026-05-09 09:57 | 39.40099 | 15.78117 | 37535 ft | 399 kts | 319° |
| 2026-05-09 09:57 | 39.42356 | 15.76035 | 37897 ft | 397 kts | 319° |
| 2026-05-09 09:58 | 39.44599 | 15.73965 | 38230 ft | 396 kts | 319° |
| 2026-05-09 09:58 | 39.46843 | 15.71893 | 38551 ft | 395 kts | 319° |
| 2026-05-09 09:58 | 39.48352 | 15.70498 | 38761 ft | 395 kts | 319° |
| 2026-05-09 09:58 | 39.50584 | 15.68432 | 39008 ft | 394 kts | 319° |
| 2026-05-09 09:59 | 39.52813 | 15.66369 | 39212 ft | 394 kts | 319° |
| 2026-05-09 09:59 | 39.55045 | 15.64300 | 39383 ft | 395 kts | 319° |
| 2026-05-09 09:59 | 39.57278 | 15.62229 | 39552 ft | 395 kts | 319° |
| 2026-05-09 09:59 | 39.59516 | 15.60153 | 39712 ft | 396 kts | 319° |
| 2026-05-09 10:00 | 39.61761 | 15.58067 | 39862 ft | 397 kts | 319° |
| 2026-05-09 10:00 | 39.64009 | 15.55978 | 40013 ft | 398 kts | 319° |
| 2026-05-09 10:00 | 39.66258 | 15.53885 | 40129 ft | 398 kts | 319° |
| 2026-05-09 10:01 | 39.70733 | 15.49718 | 40120 ft | 398 kts | 319° |
| 2026-05-09 10:01 | 39.75236 | 15.45517 | 40118 ft | 399 kts | 319° |
| 2026-05-09 10:02 | 39.79740 | 15.41307 | 40124 ft | 399 kts | 319° |
| 2026-05-09 10:02 | 39.84244 | 15.37092 | 40123 ft | 399 kts | 319° |
| 2026-05-09 10:03 | 39.88744 | 15.32872 | 40124 ft | 399 kts | 319° |
| 2026-05-09 10:03 | 39.93244 | 15.28647 | 40123 ft | 399 kts | 319° |
| 2026-05-09 10:04 | 39.97748 | 15.24410 | 40116 ft | 400 kts | 319° |
| 2026-05-09 10:04 | 40.02262 | 15.20157 | 40105 ft | 400 kts | 319° |
| 2026-05-09 10:05 | 40.06769 | 15.15902 | 40096 ft | 400 kts | 319° |
| 2026-05-09 10:05 | 40.11275 | 15.11642 | 40099 ft | 400 kts | 319° |
| 2026-05-09 10:06 | 40.15781 | 15.07375 | 40113 ft | 400 kts | 319° |
| 2026-05-09 10:06 | 40.20284 | 15.03103 | 40098 ft | 400 kts | 318° |
| 2026-05-09 10:07 | 40.24783 | 14.98830 | 40111 ft | 400 kts | 318° |
| 2026-05-09 10:07 | 40.29278 | 14.94551 | 40095 ft | 400 kts | 318° |
| 2026-05-09 10:08 | 40.33776 | 14.90262 | 40088 ft | 400 kts | 318° |
| 2026-05-09 10:08 | 40.38281 | 14.85960 | 40086 ft | 401 kts | 318° |
| 2026-05-09 10:09 | 40.42753 | 14.81682 | 40085 ft | 400 kts | 318° |
| 2026-05-09 10:09 | 40.47247 | 14.77376 | 40082 ft | 400 kts | 318° |
| 2026-05-09 10:10 | 40.51741 | 14.73063 | 40081 ft | 400 kts | 318° |
| 2026-05-09 10:10 | 40.56230 | 14.68747 | 40113 ft | 400 kts | 318° |
| 2026-05-09 10:11 | 40.60724 | 14.64419 | 40047 ft | 399 kts | 318° |
| 2026-05-09 10:11 | 40.65204 | 14.60097 | 40091 ft | 399 kts | 318° |
| 2026-05-09 10:12 | 40.69651 | 14.55799 | 40113 ft | 397 kts | 318° |
| 2026-05-09 10:12 | 40.74153 | 14.51441 | 40075 ft | 398 kts | 318° |
| 2026-05-09 10:13 | 40.78585 | 14.47143 | 40102 ft | 398 kts | 318° |
| 2026-05-09 10:13 | 40.83041 | 14.42816 | 40092 ft | 396 kts | 318° |
| 2026-05-09 10:14 | 40.87486 | 14.38490 | 40133 ft | 398 kts | 318° |
| 2026-05-09 10:14 | 40.91944 | 14.34146 | 40101 ft | 397 kts | 318° |
| 2026-05-09 10:15 | 40.96391 | 14.29804 | 40103 ft | 398 kts | 318° |
| 2026-05-09 10:15 | 41.00840 | 14.25453 | 40100 ft | 398 kts | 318° |
| 2026-05-09 10:16 | 41.05284 | 14.21099 | 40092 ft | 398 kts | 318° |
| 2026-05-09 10:16 | 41.09738 | 14.16729 | 40103 ft | 399 kts | 318° |
| 2026-05-09 10:17 | 41.14201 | 14.12345 | 40110 ft | 399 kts | 318° |
| 2026-05-09 10:17 | 41.18653 | 14.07963 | 40104 ft | 399 kts | 317° |
| 2026-05-09 10:18 | 41.23108 | 14.03570 | 40088 ft | 399 kts | 318° |
| 2026-05-09 10:18 | 41.27526 | 13.99207 | 40089 ft | 398 kts | 317° |
| 2026-05-09 10:19 | 41.31582 | 13.94335 | 40099 ft | 391 kts | 309° |
| 2026-05-09 10:19 | 41.35345 | 13.89072 | 40108 ft | 392 kts | 309° |
| 2026-05-09 10:20 | 41.39091 | 13.83786 | 40094 ft | 392 kts | 309° |
| 2026-05-09 10:20 | 41.42839 | 13.78484 | 40093 ft | 394 kts | 309° |
| 2026-05-09 10:21 | 41.46594 | 13.73162 | 40097 ft | 394 kts | 308° |
| 2026-05-09 10:21 | 41.50344 | 13.67835 | 40096 ft | 394 kts | 308° |
| 2026-05-09 10:22 | 41.54092 | 13.62503 | 40098 ft | 394 kts | 308° |
| 2026-05-09 10:22 | 41.57838 | 13.57163 | 40095 ft | 394 kts | 308° |
| 2026-05-09 10:23 | 41.61582 | 13.51817 | 40115 ft | 394 kts | 309° |
| 2026-05-09 10:23 | 41.65322 | 13.46465 | 40095 ft | 394 kts | 308° |
| 2026-05-09 10:24 | 41.69068 | 13.41097 | 40098 ft | 395 kts | 308° |
| 2026-05-09 10:24 | 41.72814 | 13.35725 | 40100 ft | 395 kts | 309° |
| 2026-05-09 10:25 | 41.77083 | 13.30998 | 40100 ft | 400 kts | 316° |
| 2026-05-09 10:25 | 41.81450 | 13.26372 | 40101 ft | 400 kts | 316° |
| 2026-05-09 10:26 | 41.85799 | 13.21779 | 40122 ft | 400 kts | 316° |
| 2026-05-09 10:26 | 41.90165 | 13.17161 | 40089 ft | 399 kts | 316° |
| 2026-05-09 10:27 | 41.94525 | 13.12542 | 40081 ft | 399 kts | 316° |
| 2026-05-09 10:27 | 41.98892 | 13.07906 | 40077 ft | 400 kts | 316° |
| 2026-05-09 10:28 | 42.03263 | 13.03259 | 40075 ft | 401 kts | 316° |
| 2026-05-09 10:28 | 42.07631 | 12.98605 | 40062 ft | 400 kts | 316° |
| 2026-05-09 10:29 | 42.12000 | 12.93943 | 40076 ft | 401 kts | 316° |
| 2026-05-09 10:29 | 42.16367 | 12.89275 | 40091 ft | 401 kts | 316° |
| 2026-05-09 10:30 | 42.20733 | 12.84599 | 40094 ft | 400 kts | 316° |
| 2026-05-09 10:30 | 42.25090 | 12.79924 | 40113 ft | 400 kts | 316° |
| 2026-05-09 10:31 | 42.29452 | 12.75234 | 40107 ft | 402 kts | 315° |
| 2026-05-09 10:31 | 42.33795 | 12.70557 | 40129 ft | 403 kts | 315° |
| 2026-05-09 10:32 | 42.38211 | 12.65794 | 40118 ft | 403 kts | 315° |
| 2026-05-09 10:32 | 42.42567 | 12.61087 | 40143 ft | 404 kts | 315° |
| 2026-05-09 10:33 | 42.46956 | 12.56333 | 40115 ft | 403 kts | 315° |
| 2026-05-09 10:33 | 42.51339 | 12.51579 | 40099 ft | 403 kts | 315° |
| 2026-05-09 10:34 | 42.55721 | 12.46817 | 40121 ft | 404 kts | 315° |
| 2026-05-09 10:34 | 42.62278 | 12.39673 | 40092 ft | 403 kts | 315° |
| 2026-05-09 10:35 | 42.66657 | 12.34891 | 40083 ft | 404 kts | 315° |
| 2026-05-09 10:35 | 42.71043 | 12.30094 | 40090 ft | 405 kts | 315° |
| 2026-05-09 10:36 | 42.75424 | 12.25292 | 40088 ft | 404 kts | 315° |
| 2026-05-09 10:36 | 42.79801 | 12.20485 | 40101 ft | 404 kts | 315° |
| 2026-05-09 10:37 | 42.84173 | 12.15676 | 40096 ft | 404 kts | 315° |
| 2026-05-09 10:37 | 42.88545 | 12.10857 | 40097 ft | 404 kts | 315° |
| 2026-05-09 10:38 | 42.92914 | 12.06033 | 40097 ft | 404 kts | 315° |
| 2026-05-09 10:38 | 42.97281 | 12.01201 | 40096 ft | 405 kts | 314° |
| 2026-05-09 10:39 | 43.01660 | 11.96349 | 40122 ft | 406 kts | 315° |
| 2026-05-09 10:39 | 43.06033 | 11.91492 | 40097 ft | 405 kts | 315° |
| 2026-05-09 10:40 | 43.10401 | 11.86632 | 40098 ft | 405 kts | 314° |
| 2026-05-09 10:40 | 43.14739 | 11.81796 | 40100 ft | 404 kts | 314° |
| 2026-05-09 10:41 | 43.19102 | 11.76923 | 40093 ft | 405 kts | 314° |
| 2026-05-09 10:41 | 43.23467 | 11.72039 | 40113 ft | 405 kts | 315° |
| 2026-05-09 10:42 | 43.27833 | 11.67144 | 40104 ft | 405 kts | 314° |
| 2026-05-09 10:42 | 43.32207 | 11.62231 | 40093 ft | 406 kts | 314° |
| 2026-05-09 10:43 | 43.36583 | 11.57306 | 40087 ft | 406 kts | 314° |
| 2026-05-09 10:43 | 43.40953 | 11.52380 | 40091 ft | 406 kts | 314° |
| 2026-05-09 10:44 | 43.45327 | 11.47441 | 40121 ft | 407 kts | 314° |
| 2026-05-09 10:44 | 43.49696 | 11.42500 | 40088 ft | 407 kts | 314° |
| 2026-05-09 10:46 | 43.61503 | 11.31532 | 40083 ft | 416 kts | 324° |
| 2026-05-09 10:46 | 43.66583 | 11.27698 | 40074 ft | 416 kts | 324° |
| 2026-05-09 10:47 | 43.70819 | 11.24510 | 40076 ft | 418 kts | 324° |
| 2026-05-09 10:47 | 43.75929 | 11.20658 | 40073 ft | 418 kts | 324° |
| 2026-05-09 10:48 | 43.81030 | 11.16804 | 40075 ft | 418 kts | 324° |
| 2026-05-09 10:48 | 43.86130 | 11.12945 | 40070 ft | 418 kts | 324° |
| 2026-05-09 10:49 | 43.91230 | 11.09077 | 40078 ft | 418 kts | 324° |
| 2026-05-09 10:49 | 43.96325 | 11.05206 | 40097 ft | 419 kts | 324° |
| 2026-05-09 10:50 | 44.01429 | 11.01320 | 40128 ft | 417 kts | 324° |
| 2026-05-09 10:50 | 44.06323 | 10.97075 | 40150 ft | 414 kts | 321° |
| 2026-05-09 10:51 | 44.11200 | 10.92812 | 40200 ft | 415 kts | 322° |
| 2026-05-09 10:51 | 44.16101 | 10.88535 | 40169 ft | 416 kts | 321° |
| 2026-05-09 10:52 | 44.20976 | 10.84275 | 39647 ft | 411 kts | 321° |
| 2026-05-09 10:52 | 44.23357 | 10.82191 | 39188 ft | 407 kts | 321° |
| 2026-05-09 10:52 | 44.25731 | 10.80090 | 38584 ft | 404 kts | 320° |
| 2026-05-09 10:52 | 44.28112 | 10.77971 | 37698 ft | 407 kts | 320° |
| 2026-05-09 10:53 | 44.30503 | 10.75843 | 36923 ft | 408 kts | 320° |
| 2026-05-09 10:53 | 44.32895 | 10.73715 | 36253 ft | 407 kts | 320° |
| 2026-05-09 10:53 | 44.35278 | 10.71591 | 35566 ft | 407 kts | 320° |
| 2026-05-09 10:53 | 44.37667 | 10.69460 | 34818 ft | 408 kts | 319° |
| 2026-05-09 10:54 | 44.40070 | 10.67314 | 34020 ft | 411 kts | 319° |
| 2026-05-09 10:54 | 44.42488 | 10.65156 | 33108 ft | 413 kts | 320° |
| 2026-05-09 10:54 | 44.44910 | 10.62990 | 32332 ft | 413 kts | 320° |
| 2026-05-09 10:54 | 44.47320 | 10.60832 | 31741 ft | 409 kts | 320° |
| 2026-05-09 10:55 | 44.49707 | 10.58693 | 31191 ft | 406 kts | 321° |
| 2026-05-09 10:55 | 44.52075 | 10.56568 | 30609 ft | 404 kts | 321° |
| 2026-05-09 10:55 | 44.54446 | 10.54439 | 29872 ft | 404 kts | 321° |
| 2026-05-09 10:55 | 44.56816 | 10.52307 | 29089 ft | 405 kts | 321° |
| 2026-05-09 10:56 | 44.59184 | 10.50176 | 28391 ft | 403 kts | 321° |
| 2026-05-09 10:56 | 44.61538 | 10.48055 | 27686 ft | 403 kts | 321° |
| 2026-05-09 10:56 | 44.63903 | 10.45923 | 26941 ft | 403 kts | 322° |
| 2026-05-09 10:56 | 44.66265 | 10.43791 | 26202 ft | 404 kts | 322° |
| 2026-05-09 10:57 | 44.68629 | 10.41655 | 25434 ft | 405 kts | 322° |
| 2026-05-09 10:57 | 44.71008 | 10.39504 | 24636 ft | 407 kts | 322° |
| 2026-05-09 10:57 | 44.73372 | 10.37365 | 23848 ft | 400 kts | 322° |
| 2026-05-09 10:57 | 44.75680 | 10.35274 | 22889 ft | 390 kts | 322° |
| 2026-05-09 10:58 | 44.77910 | 10.33253 | 22457 ft | 370 kts | 322° |
| 2026-05-09 10:58 | 44.80013 | 10.31344 | 22181 ft | 350 kts | 322° |
| 2026-05-09 10:58 | 44.82012 | 10.29534 | 21817 ft | 334 kts | 322° |
| 2026-05-09 10:58 | 44.83976 | 10.27795 | 21114 ft | 333 kts | 322° |
| 2026-05-09 10:59 | 44.85931 | 10.26064 | 20355 ft | 331 kts | 323° |
| 2026-05-09 10:59 | 44.87882 | 10.24333 | 19586 ft | 331 kts | 323° |
| 2026-05-09 10:59 | 44.89819 | 10.22612 | 18928 ft | 328 kts | 323° |
| 2026-05-09 10:59 | 44.91735 | 10.20908 | 18324 ft | 323 kts | 323° |
| 2026-05-09 11:00 | 44.93626 | 10.19228 | 17724 ft | 318 kts | 323° |
| 2026-05-09 11:00 | 44.95474 | 10.17583 | 17207 ft | 309 kts | 323° |
| 2026-05-09 11:00 | 44.97262 | 10.15991 | 16758 ft | 299 kts | 323° |
| 2026-05-09 11:00 | 44.99027 | 10.14416 | 16322 ft | 300 kts | 324° |
| 2026-05-09 11:01 | 45.00794 | 10.12838 | 15958 ft | 299 kts | 324° |
| 2026-05-09 11:01 | 45.02526 | 10.11291 | 15788 ft | 291 kts | 324° |
| 2026-05-09 11:01 | 45.04219 | 10.09779 | 15595 ft | 286 kts | 324° |
| 2026-05-09 11:01 | 45.05905 | 10.08269 | 15135 ft | 289 kts | 324° |
| 2026-05-09 11:02 | 45.07596 | 10.06756 | 14794 ft | 286 kts | 324° |
| 2026-05-09 11:02 | 45.09266 | 10.05259 | 14455 ft | 283 kts | 324° |
| 2026-05-09 11:02 | 45.10921 | 10.03775 | 14102 ft | 280 kts | 324° |
| 2026-05-09 11:02 | 45.12564 | 10.02301 | 13719 ft | 279 kts | 325° |
| 2026-05-09 11:03 | 45.14192 | 10.00839 | 13361 ft | 275 kts | 325° |
| 2026-05-09 11:03 | 45.15796 | 9.99398 | 13037 ft | 269 kts | 325° |
| 2026-05-09 11:03 | 45.17364 | 9.97987 | 12717 ft | 265 kts | 325° |
| 2026-05-09 11:03 | 45.18907 | 9.96600 | 12394 ft | 263 kts | 326° |
| 2026-05-09 11:04 | 45.20461 | 9.95199 | 12186 ft | 265 kts | 326° |
| 2026-05-09 11:04 | 45.22014 | 9.93824 | 12037 ft | 263 kts | 330° |
| 2026-05-09 11:04 | 45.23775 | 9.93138 | 11687 ft | 268 kts | 357° |
| 2026-05-09 11:04 | 45.25646 | 9.93301 | 11274 ft | 268 kts | 3° |
| 2026-05-09 11:05 | 45.27478 | 9.93657 | 10832 ft | 266 kts | 18° |
| 2026-05-09 11:05 | 45.29040 | 9.95018 | 10379 ft | 266 kts | 46° |
| 2026-05-09 11:05 | 45.29971 | 9.97239 | 9968 ft | 260 kts | 73° |
| 2026-05-09 11:05 | 45.30247 | 9.99753 | 9533 ft | 256 kts | 84° |
| 2026-05-09 11:06 | 45.30428 | 10.02267 | 9108 ft | 256 kts | 84° |
| 2026-05-09 11:06 | 45.30863 | 10.04655 | 8835 ft | 252 kts | 64° |
| 2026-05-09 11:06 | 45.31901 | 10.06634 | 8552 ft | 254 kts | 37° |
| 2026-05-09 11:06 | 45.33494 | 10.07703 | 8130 ft | 257 kts | 10° |
| 2026-05-09 11:07 | 45.35264 | 10.07659 | 7735 ft | 253 kts | 343° |
| 2026-05-09 11:07 | 45.36817 | 10.06595 | 7441 ft | 245 kts | 328° |
| 2026-05-09 11:07 | 45.38291 | 10.05389 | 7186 ft | 245 kts | 330° |
| 2026-05-09 11:07 | 45.39786 | 10.04207 | 6910 ft | 247 kts | 331° |
| 2026-05-09 11:08 | 45.41286 | 10.03031 | 6679 ft | 245 kts | 331° |
| 2026-05-09 11:08 | 45.42773 | 10.01876 | 6535 ft | 243 kts | 332° |
| 2026-05-09 11:08 | 45.44247 | 10.00731 | 6407 ft | 242 kts | 332° |
| 2026-05-09 11:08 | 45.45726 | 9.99582 | 6296 ft | 243 kts | 332° |
| 2026-05-09 11:09 | 45.47209 | 9.98433 | 6169 ft | 242 kts | 332° |
| 2026-05-09 11:09 | 45.48682 | 9.97295 | 6056 ft | 241 kts | 332° |
| 2026-05-09 11:09 | 45.50201 | 9.96471 | 5844 ft | 236 kts | 353° |
| 2026-05-09 11:09 | 45.51847 | 9.96330 | 5598 ft | 237 kts | 358° |
| 2026-05-09 11:10 | 45.53458 | 9.96230 | 5343 ft | 228 kts | 358° |
| 2026-05-09 11:10 | 45.55004 | 9.96144 | 5139 ft | 217 kts | 358° |
| 2026-05-09 11:10 | 45.56507 | 9.96066 | 4916 ft | 216 kts | 358° |
| 2026-05-09 11:10 | 45.58009 | 9.95987 | 4696 ft | 217 kts | 358° |
| 2026-05-09 11:11 | 45.59521 | 9.95909 | 4448 ft | 218 kts | 358° |
| 2026-05-09 11:11 | 45.61000 | 9.95537 | 4198 ft | 217 kts | 335° |
| 2026-05-09 11:11 | 45.62152 | 9.94205 | 3900 ft | 214 kts | 305° |
| 2026-05-09 11:11 | 45.62801 | 9.92329 | 3632 ft | 208 kts | 287° |
| 2026-05-09 11:12 | 45.63171 | 9.90339 | 3341 ft | 206 kts | 281° |
| 2026-05-09 11:12 | 45.63505 | 9.88389 | 3064 ft | 197 kts | 282° |
| 2026-05-09 11:12 | 45.63838 | 9.86562 | 2803 ft | 184 kts | 282° |
| 2026-05-09 11:12 | 45.64156 | 9.84847 | 2561 ft | 173 kts | 282° |
| 2026-05-09 11:13 | 45.64455 | 9.83227 | 2351 ft | 165 kts | 282° |
| 2026-05-09 11:13 | 45.64753 | 9.81636 | 2153 ft | 163 kts | 281° |
| 2026-05-09 11:13 | 45.65033 | 9.80116 | 1931 ft | 152 kts | 283° |
| 2026-05-09 11:13 | 45.65299 | 9.78691 | 1730 ft | 146 kts | 284° |
| 2026-05-09 11:14 | 45.65551 | 9.77302 | 1516 ft | 144 kts | 284° |
| 2026-05-09 11:14 | 45.65806 | 9.75932 | 1322 ft | 141 kts | 286° |
| 2026-05-09 11:14 | 45.66061 | 9.74577 | 1123 ft | 142 kts | 285° |
| 2026-05-09 11:14 | 45.66318 | 9.73213 | 959 ft | 143 kts | 285° |
| 2026-05-09 11:15 | 45.66573 | 9.71835 | 794 ft | 141 kts | 284° |
| 2026-05-09 11:15 | 45.66786 | 9.70673 | 790 ft | 89 kts | 285° |
| 2026-05-09 11:15 | 45.66890 | 9.70099 | 790 ft | 32 kts | 275° |
| 2026-05-09 11:15 | 45.66850 | 9.69911 | 790 ft | 13 kts | 241° |
| 2026-05-09 11:16 | 45.66814 | 9.69820 | 790 ft | 7 kts | 242° |
| 2026-05-09 11:16 | 45.66800 | 9.69793 | 790 ft | 0 kts | 226° |
| 2026-05-09 11:16 | 45.66800 | 9.69792 | 790 ft | 0 kts | 227° |
| 2026-05-09 11:17 | 45.66799 | 9.69792 | 790 ft | 0 kts | 220° |
| 2026-05-09 11:17 | 45.66795 | 9.69793 | 790 ft | 1 kts | 173° |
| 2026-05-09 11:17 | 45.66775 | 9.69834 | 790 ft | 10 kts | 110° |
| 2026-05-09 11:17 | 45.66760 | 9.69887 | 790 ft | 3 kts | 142° |
| 2026-05-09 11:18 | 45.66732 | 9.69886 | 790 ft | 6 kts | 194° |
| 2026-05-09 11:18 | 45.66694 | 9.69871 | 790 ft | 2 kts | 195° |
| 2026-05-09 11:18 | 45.66677 | 9.69864 | 790 ft | 1 kts | 195° |
| 2026-05-09 11:18 | 45.66673 | 9.69863 | 790 ft | 0 kts | 195° |